sensor_id;sensor_type;location;lat;lon;timestamp;P1;durP1;ratioP1;P2;durP2;ratioP2
7003;SDS011;3542;48.812;9.146;2022-07-22T00:02:12;7.97;;;7.30;;
7003;SDS011;3542;48.812;9.146;2022-07-22T00:04:37;8.20;;;6.97;;
7003;SDS011;3542;48.812;9.146;2022-07-22T00:07:03;8.27;;;6.97;;
7003;SDS011;3542;48.812;9.146;2022-07-22T00:09:29;9.07;;;7.07;;
7003;SDS011;3542;48.812;9.146;2022-07-22T00:11:55;9.07;;;8.20;;
7003;SDS011;3542;48.812;9.146;2022-07-22T00:14:20;10.43;;;8.10;;
7003;SDS011;3542;48.812;9.146;2022-07-22T00:16:46;9.67;;;7.37;;
7003;SDS011;3542;48.812;9.146;2022-07-22T00:19:11;7.80;;;7.13;;
7003;SDS011;3542;48.812;9.146;2022-07-22T00:21:37;10.80;;;7.40;;
7003;SDS011;3542;48.812;9.146;2022-07-22T00:24:03;7.90;;;6.97;;
7003;SDS011;3542;48.812;9.146;2022-07-22T00:26:29;8.23;;;7.53;;
7003;SDS011;3542;48.812;9.146;2022-07-22T00:28:55;8.03;;;7.20;;
7003;SDS011;3542;48.812;9.146;2022-07-22T00:31:20;7.33;;;6.63;;
7003;SDS011;3542;48.812;9.146;2022-07-22T00:33:46;10.20;;;7.90;;
7003;SDS011;3542;48.812;9.146;2022-07-22T00:36:11;8.47;;;7.67;;
7003;SDS011;3542;48.812;9.146;2022-07-22T00:38:38;9.63;;;7.07;;
7003;SDS011;3542;48.812;9.146;2022-07-22T00:41:04;9.93;;;7.90;;
7003;SDS011;3542;48.812;9.146;2022-07-22T00:43:47;8.07;;;7.17;;
7003;SDS011;3542;48.812;9.146;2022-07-22T00:46:22;7.53;;;6.87;;
7003;SDS011;3542;48.812;9.146;2022-07-22T00:48:48;10.00;;;7.67;;
7003;SDS011;3542;48.812;9.146;2022-07-22T00:51:14;7.53;;;6.93;;
7003;SDS011;3542;48.812;9.146;2022-07-22T00:53:40;9.37;;;8.33;;
7003;SDS011;3542;48.812;9.146;2022-07-22T00:56:06;8.70;;;7.90;;
7003;SDS011;3542;48.812;9.146;2022-07-22T00:58:32;12.00;;;8.10;;
7003;SDS011;3542;48.812;9.146;2022-07-22T02:31:32;9.60;;;8.70;;
7003;SDS011;3542;48.812;9.146;2022-07-22T02:33:58;10.27;;;9.27;;
7003;SDS011;3542;48.812;9.146;2022-07-22T02:36:23;10.23;;;8.60;;
7003;SDS011;3542;48.812;9.146;2022-07-22T02:38:49;11.50;;;9.20;;
7003;SDS011;3542;48.812;9.146;2022-07-22T02:41:14;10.73;;;9.37;;
7003;SDS011;3542;48.812;9.146;2022-07-22T02:43:40;13.60;;;9.70;;
7003;SDS011;3542;48.812;9.146;2022-07-22T02:46:05;9.90;;;9.03;;
7003;SDS011;3542;48.812;9.146;2022-07-22T02:48:31;10.70;;;9.73;;
7003;SDS011;3542;48.812;9.146;2022-07-22T02:50:56;10.27;;;9.00;;
7003;SDS011;3542;48.812;9.146;2022-07-22T02:53:22;10.30;;;9.20;;
7003;SDS011;3542;48.812;9.146;2022-07-22T02:55:47;9.80;;;8.80;;
7003;SDS011;3542;48.812;9.146;2022-07-22T02:58:13;10.53;;;9.60;;
7003;SDS011;3542;48.812;9.146;2022-07-22T03:00:38;12.30;;;9.77;;
7003;SDS011;3542;48.812;9.146;2022-07-22T03:03:04;10.73;;;9.50;;
7003;SDS011;3542;48.812;9.146;2022-07-22T03:05:30;11.60;;;10.37;;
7003;SDS011;3542;48.812;9.146;2022-07-22T03:07:55;12.30;;;11.10;;
7003;SDS011;3542;48.812;9.146;2022-07-22T03:10:21;12.57;;;9.93;;
7003;SDS011;3542;48.812;9.146;2022-07-22T03:12:47;10.67;;;9.47;;
7003;SDS011;3542;48.812;9.146;2022-07-22T03:15:12;12.43;;;10.63;;
7003;SDS011;3542;48.812;9.146;2022-07-22T03:17:38;12.63;;;10.63;;
7003;SDS011;3542;48.812;9.146;2022-07-22T03:20:07;11.17;;;10.07;;
7003;SDS011;3542;48.812;9.146;2022-07-22T03:22:34;12.43;;;11.17;;
7003;SDS011;3542;48.812;9.146;2022-07-22T03:25:00;12.50;;;11.20;;
7003;SDS011;3542;48.812;9.146;2022-07-22T03:27:26;14.97;;;10.50;;
7003;SDS011;3542;48.812;9.146;2022-07-22T03:29:51;12.50;;;10.87;;
7003;SDS011;3542;48.812;9.146;2022-07-22T03:32:17;13.70;;;10.80;;
7003;SDS011;3542;48.812;9.146;2022-07-22T03:34:43;12.20;;;11.10;;
7003;SDS011;3542;48.812;9.146;2022-07-22T03:37:09;15.40;;;10.73;;
7003;SDS011;3542;48.812;9.146;2022-07-22T03:39:34;13.73;;;11.23;;
7003;SDS011;3542;48.812;9.146;2022-07-22T03:42:00;11.70;;;10.50;;
7003;SDS011;3542;48.812;9.146;2022-07-22T03:44:26;12.90;;;11.60;;
7003;SDS011;3542;48.812;9.146;2022-07-22T03:46:51;12.20;;;10.90;;
7003;SDS011;3542;48.812;9.146;2022-07-22T03:49:17;12.63;;;11.33;;
7003;SDS011;3542;48.812;9.146;2022-07-22T03:51:42;13.37;;;11.60;;
7003;SDS011;3542;48.812;9.146;2022-07-22T03:54:08;12.00;;;10.80;;
7003;SDS011;3542;48.812;9.146;2022-07-22T03:56:34;12.90;;;11.23;;
7003;SDS011;3542;48.812;9.146;2022-07-22T03:58:59;17.67;;;12.50;;
7003;SDS011;3542;48.812;9.146;2022-07-22T04:01:25;13.17;;;11.83;;
7003;SDS011;3542;48.812;9.146;2022-07-22T04:03:50;13.80;;;12.40;;
7003;SDS011;3542;48.812;9.146;2022-07-22T04:06:16;12.43;;;11.13;;
7003;SDS011;3542;48.812;9.146;2022-07-22T04:08:42;12.90;;;11.60;;
7003;SDS011;3542;48.812;9.146;2022-07-22T04:11:07;14.83;;;12.00;;
7003;SDS011;3542;48.812;9.146;2022-07-22T04:13:33;11.43;;;9.97;;
7003;SDS011;3542;48.812;9.146;2022-07-22T04:15:59;13.37;;;12.13;;
7003;SDS011;3542;48.812;9.146;2022-07-22T04:18:24;12.43;;;11.13;;
7003;SDS011;3542;48.812;9.146;2022-07-22T04:20:50;13.53;;;12.10;;
7003;SDS011;3542;48.812;9.146;2022-07-22T04:23:15;12.47;;;11.17;;
7003;SDS011;3542;48.812;9.146;2022-07-22T04:25:41;13.27;;;11.97;;
7003;SDS011;3542;48.812;9.146;2022-07-22T04:28:07;15.87;;;11.80;;
7003;SDS011;3542;48.812;9.146;2022-07-22T04:30:32;12.67;;;11.37;;
7003;SDS011;3542;48.812;9.146;2022-07-22T04:32:58;16.37;;;12.50;;
7003;SDS011;3542;48.812;9.146;2022-07-22T04:35:23;15.90;;;11.57;;
7003;SDS011;3542;48.812;9.146;2022-07-22T04:37:49;14.97;;;13.37;;
7003;SDS011;3542;48.812;9.146;2022-07-22T04:40:15;13.83;;;11.40;;
7003;SDS011;3542;48.812;9.146;2022-07-22T04:42:40;14.77;;;12.13;;
7003;SDS011;3542;48.812;9.146;2022-07-22T04:45:06;13.00;;;11.80;;
7003;SDS011;3542;48.812;9.146;2022-07-22T04:47:32;13.37;;;11.93;;
7003;SDS011;3542;48.812;9.146;2022-07-22T04:49:57;15.73;;;12.20;;
7003;SDS011;3542;48.812;9.146;2022-07-22T04:52:23;15.87;;;14.13;;
7003;SDS011;3542;48.812;9.146;2022-07-22T04:54:48;13.97;;;12.57;;
7003;SDS011;3542;48.812;9.146;2022-07-22T04:57:14;15.10;;;13.53;;
7003;SDS011;3542;48.812;9.146;2022-07-22T04:59:39;15.03;;;12.60;;
7003;SDS011;3542;48.812;9.146;2022-07-22T05:02:05;14.20;;;12.80;;
7003;SDS011;3542;48.812;9.146;2022-07-22T05:04:31;16.33;;;12.30;;
7003;SDS011;3542;48.812;9.146;2022-07-22T05:06:56;13.17;;;11.77;;
7003;SDS011;3542;48.812;9.146;2022-07-22T05:09:22;14.63;;;13.13;;
7003;SDS011;3542;48.812;9.146;2022-07-22T05:11:48;16.30;;;13.93;;
7003;SDS011;3542;48.812;9.146;2022-07-22T05:14:13;13.00;;;11.90;;
7003;SDS011;3542;48.812;9.146;2022-07-22T05:16:38;14.20;;;12.70;;
7003;SDS011;3542;48.812;9.146;2022-07-22T05:19:04;12.87;;;11.57;;
7003;SDS011;3542;48.812;9.146;2022-07-22T05:21:30;12.90;;;11.50;;
7003;SDS011;3542;48.812;9.146;2022-07-22T05:23:56;13.80;;;12.40;;
7003;SDS011;3542;48.812;9.146;2022-07-22T05:26:21;14.33;;;12.50;;
7003;SDS011;3542;48.812;9.146;2022-07-22T05:28:47;18.43;;;11.80;;
7003;SDS011;3542;48.812;9.146;2022-07-22T05:31:13;14.20;;;11.20;;
7003;SDS011;3542;48.812;9.146;2022-07-22T05:33:38;12.10;;;10.63;;
7003;SDS011;3542;48.812;9.146;2022-07-22T05:36:04;14.57;;;11.43;;
7003;SDS011;3542;48.812;9.146;2022-07-22T05:38:33;12.77;;;11.53;;
7003;SDS011;3542;48.812;9.146;2022-07-22T05:40:59;20.13;;;11.40;;
7003;SDS011;3542;48.812;9.146;2022-07-22T05:43:24;14.13;;;11.70;;
7003;SDS011;3542;48.812;9.146;2022-07-22T05:45:50;10.67;;;9.57;;
7003;SDS011;3542;48.812;9.146;2022-07-22T05:48:15;12.60;;;10.93;;
7003;SDS011;3542;48.812;9.146;2022-07-22T05:50:41;13.70;;;12.03;;
7003;SDS011;3542;48.812;9.146;2022-07-22T05:53:06;13.83;;;11.13;;
7003;SDS011;3542;48.812;9.146;2022-07-22T05:55:32;12.03;;;10.80;;
7003;SDS011;3542;48.812;9.146;2022-07-22T05:57:57;11.10;;;10.10;;
7003;SDS011;3542;48.812;9.146;2022-07-22T06:00:23;12.53;;;9.80;;
7003;SDS011;3542;48.812;9.146;2022-07-22T06:02:48;12.37;;;11.07;;
7003;SDS011;3542;48.812;9.146;2022-07-22T06:05:14;12.30;;;11.00;;
7003;SDS011;3542;48.812;9.146;2022-07-22T06:07:39;12.90;;;11.50;;
7003;SDS011;3542;48.812;9.146;2022-07-22T06:10:05;13.80;;;10.13;;
7003;SDS011;3542;48.812;9.146;2022-07-22T06:12:31;11.40;;;10.30;;
7003;SDS011;3542;48.812;9.146;2022-07-22T06:14:56;17.20;;;11.30;;
7003;SDS011;3542;48.812;9.146;2022-07-22T06:17:22;14.00;;;11.30;;
7003;SDS011;3542;48.812;9.146;2022-07-22T06:19:47;11.40;;;10.30;;
7003;SDS011;3542;48.812;9.146;2022-07-22T06:22:13;10.73;;;9.63;;
7003;SDS011;3542;48.812;9.146;2022-07-22T06:24:38;11.77;;;10.47;;
7003;SDS011;3542;48.812;9.146;2022-07-22T06:27:04;12.83;;;11.47;;
7003;SDS011;3542;48.812;9.146;2022-07-22T06:29:29;11.77;;;10.57;;
7003;SDS011;3542;48.812;9.146;2022-07-22T06:31:55;13.70;;;10.70;;
7003;SDS011;3542;48.812;9.146;2022-07-22T06:34:20;13.43;;;12.20;;
7003;SDS011;3542;48.812;9.146;2022-07-22T06:36:46;12.07;;;10.67;;
7003;SDS011;3542;48.812;9.146;2022-07-22T06:39:11;12.93;;;10.70;;
7003;SDS011;3542;48.812;9.146;2022-07-22T06:41:37;12.20;;;11.10;;
7003;SDS011;3542;48.812;9.146;2022-07-22T06:44:02;11.30;;;10.30;;
7003;SDS011;3542;48.812;9.146;2022-07-22T06:46:28;11.70;;;10.70;;
7003;SDS011;3542;48.812;9.146;2022-07-22T06:48:54;12.30;;;11.10;;
7003;SDS011;3542;48.812;9.146;2022-07-22T06:51:19;12.53;;;11.23;;
7003;SDS011;3542;48.812;9.146;2022-07-22T06:53:45;11.37;;;10.37;;
7003;SDS011;3542;48.812;9.146;2022-07-22T06:56:10;15.50;;;10.83;;
7003;SDS011;3542;48.812;9.146;2022-07-22T06:58:36;13.93;;;10.33;;
7003;SDS011;3542;48.812;9.146;2022-07-22T07:01:01;13.40;;;11.23;;
7003;SDS011;3542;48.812;9.146;2022-07-22T07:03:27;11.77;;;10.63;;
7003;SDS011;3542;48.812;9.146;2022-07-22T07:05:52;11.57;;;10.50;;
7003;SDS011;3542;48.812;9.146;2022-07-22T07:08:18;12.40;;;11.23;;
7003;SDS011;3542;48.812;9.146;2022-07-22T07:10:43;12.23;;;11.03;;
7003;SDS011;3542;48.812;9.146;2022-07-22T07:13:09;11.53;;;10.53;;
7003;SDS011;3542;48.812;9.146;2022-07-22T07:15:35;11.23;;;10.27;;
7003;SDS011;3542;48.812;9.146;2022-07-22T07:18:01;11.33;;;10.23;;
7003;SDS011;3542;48.812;9.146;2022-07-22T07:20:26;11.83;;;10.33;;
7003;SDS011;3542;48.812;9.146;2022-07-22T07:22:52;10.17;;;9.13;;
7003;SDS011;3542;48.812;9.146;2022-07-22T07:25:18;12.60;;;9.40;;
7003;SDS011;3542;48.812;9.146;2022-07-22T07:27:44;11.93;;;9.17;;
7003;SDS011;3542;48.812;9.146;2022-07-22T07:30:10;11.27;;;10.20;;
7003;SDS011;3542;48.812;9.146;2022-07-22T07:32:36;11.10;;;9.53;;
7003;SDS011;3542;48.812;9.146;2022-07-22T07:35:02;11.57;;;9.67;;
7003;SDS011;3542;48.812;9.146;2022-07-22T07:37:28;9.63;;;8.40;;
7003;SDS011;3542;48.812;9.146;2022-07-22T07:39:54;10.60;;;9.03;;
7003;SDS011;3542;48.812;9.146;2022-07-22T07:42:19;12.17;;;10.97;;
7003;SDS011;3542;48.812;9.146;2022-07-22T07:44:45;15.83;;;10.30;;
7003;SDS011;3542;48.812;9.146;2022-07-22T07:47:10;10.83;;;9.90;;
7003;SDS011;3542;48.812;9.146;2022-07-22T07:49:38;10.97;;;9.07;;
7003;SDS011;3542;48.812;9.146;2022-07-22T07:52:03;10.80;;;9.70;;
7003;SDS011;3542;48.812;9.146;2022-07-22T07:54:29;15.63;;;10.57;;
7003;SDS011;3542;48.812;9.146;2022-07-22T07:56:54;11.10;;;10.00;;
7003;SDS011;3542;48.812;9.146;2022-07-22T07:59:20;9.90;;;9.00;;
7003;SDS011;3542;48.812;9.146;2022-07-22T08:01:46;13.67;;;10.87;;
7003;SDS011;3542;48.812;9.146;2022-07-22T08:04:11;11.17;;;10.17;;
7003;SDS011;3542;48.812;9.146;2022-07-22T08:06:37;12.07;;;9.50;;
7003;SDS011;3542;48.812;9.146;2022-07-22T08:09:03;14.87;;;10.53;;
7003;SDS011;3542;48.812;9.146;2022-07-22T08:11:29;11.17;;;10.10;;
7003;SDS011;3542;48.812;9.146;2022-07-22T08:13:54;10.27;;;9.17;;
7003;SDS011;3542;48.812;9.146;2022-07-22T08:16:20;9.70;;;8.90;;
7003;SDS011;3542;48.812;9.146;2022-07-22T08:18:45;19.33;;;10.80;;
7003;SDS011;3542;48.812;9.146;2022-07-22T08:21:11;12.20;;;10.23;;
7003;SDS011;3542;48.812;9.146;2022-07-22T08:23:36;11.70;;;10.70;;
7003;SDS011;3542;48.812;9.146;2022-07-22T08:26:02;10.70;;;9.73;;
7003;SDS011;3542;48.812;9.146;2022-07-22T08:28:27;11.17;;;10.10;;
7003;SDS011;3542;48.812;9.146;2022-07-22T08:30:53;17.77;;;9.30;;
7003;SDS011;3542;48.812;9.146;2022-07-22T08:33:19;10.63;;;9.60;;
7003;SDS011;3542;48.812;9.146;2022-07-22T08:35:44;10.73;;;8.90;;
7003;SDS011;3542;48.812;9.146;2022-07-22T08:38:10;10.57;;;9.50;;
7003;SDS011;3542;48.812;9.146;2022-07-22T08:40:36;12.70;;;10.20;;
7003;SDS011;3542;48.812;9.146;2022-07-22T08:43:02;15.37;;;11.00;;
7003;SDS011;3542;48.812;9.146;2022-07-22T08:45:29;11.60;;;10.50;;
7003;SDS011;3542;48.812;9.146;2022-07-22T08:47:55;11.57;;;10.53;;
7003;SDS011;3542;48.812;9.146;2022-07-22T08:50:21;11.83;;;10.60;;
7003;SDS011;3542;48.812;9.146;2022-07-22T08:52:46;11.80;;;9.53;;
7003;SDS011;3542;48.812;9.146;2022-07-22T08:55:12;12.30;;;10.17;;
7003;SDS011;3542;48.812;9.146;2022-07-22T08:57:43;10.70;;;9.67;;
7003;SDS011;3542;48.812;9.146;2022-07-22T09:00:12;11.40;;;9.23;;
7003;SDS011;3542;48.812;9.146;2022-07-22T09:02:40;11.73;;;9.70;;
7003;SDS011;3542;48.812;9.146;2022-07-22T09:05:08;10.87;;;9.87;;
7003;SDS011;3542;48.812;9.146;2022-07-22T09:07:37;10.57;;;9.77;;
7003;SDS011;3542;48.812;9.146;2022-07-22T09:10:05;10.37;;;9.50;;
7003;SDS011;3542;48.812;9.146;2022-07-22T09:12:33;9.90;;;8.27;;
7003;SDS011;3542;48.812;9.146;2022-07-22T09:14:59;8.93;;;8.13;;
7003;SDS011;3542;48.812;9.146;2022-07-22T09:17:30;9.20;;;7.33;;
7003;SDS011;3542;48.812;9.146;2022-07-22T09:19:59;8.97;;;8.17;;
7003;SDS011;3542;48.812;9.146;2022-07-22T09:22:42;10.20;;;9.17;;
7003;SDS011;3542;48.812;9.146;2022-07-22T09:25:25;12.00;;;9.03;;
7003;SDS011;3542;48.812;9.146;2022-07-22T09:30:34;10.50;;;8.50;;
7003;SDS011;3542;48.812;9.146;2022-07-22T09:33:19;10.20;;;9.30;;
7003;SDS011;3542;48.812;9.146;2022-07-22T09:35:45;10.10;;;9.13;;
7003;SDS011;3542;48.812;9.146;2022-07-22T09:38:12;9.57;;;8.67;;
7003;SDS011;3542;48.812;9.146;2022-07-22T09:40:48;8.93;;;8.13;;
7003;SDS011;3542;48.812;9.146;2022-07-22T09:43:15;8.07;;;7.47;;
7003;SDS011;3542;48.812;9.146;2022-07-22T09:45:46;8.87;;;8.07;;
7003;SDS011;3542;48.812;9.146;2022-07-22T09:48:16;9.10;;;8.30;;
7003;SDS011;3542;48.812;9.146;2022-07-22T09:50:43;8.80;;;8.00;;
7003;SDS011;3542;48.812;9.146;2022-07-22T09:53:09;11.57;;;7.43;;
7003;SDS011;3542;48.812;9.146;2022-07-22T09:55:34;8.60;;;7.87;;
7003;SDS011;3542;48.812;9.146;2022-07-22T09:58:03;10.10;;;8.13;;
7003;SDS011;3542;48.812;9.146;2022-07-22T10:00:30;10.80;;;8.67;;
7003;SDS011;3542;48.812;9.146;2022-07-22T10:03:00;8.00;;;7.33;;
7003;SDS011;3542;48.812;9.146;2022-07-22T10:05:28;8.67;;;7.80;;
7003;SDS011;3542;48.812;9.146;2022-07-22T10:07:55;10.77;;;6.97;;
7003;SDS011;3542;48.812;9.146;2022-07-22T10:10:25;9.50;;;7.10;;
7003;SDS011;3542;48.812;9.146;2022-07-22T10:12:54;9.00;;;8.03;;
7003;SDS011;3542;48.812;9.146;2022-07-22T10:15:21;8.10;;;7.40;;
7003;SDS011;3542;48.812;9.146;2022-07-22T10:17:48;9.03;;;8.33;;
7003;SDS011;3542;48.812;9.146;2022-07-22T10:20:17;8.67;;;7.80;;
7003;SDS011;3542;48.812;9.146;2022-07-22T10:22:45;7.13;;;6.53;;
7003;SDS011;3542;48.812;9.146;2022-07-22T10:25:16;7.80;;;6.80;;
7003;SDS011;3542;48.812;9.146;2022-07-22T10:27:54;8.20;;;7.57;;
7003;SDS011;3542;48.812;9.146;2022-07-22T10:30:34;8.23;;;7.63;;
7003;SDS011;3542;48.812;9.146;2022-07-22T10:35:58;7.57;;;6.90;;
7003;SDS011;3542;48.812;9.146;2022-07-22T10:38:26;7.70;;;6.97;;
7003;SDS011;3542;48.812;9.146;2022-07-22T10:43:25;8.53;;;7.70;;
7003;SDS011;3542;48.812;9.146;2022-07-22T10:45:56;9.50;;;8.50;;
7003;SDS011;3542;48.812;9.146;2022-07-22T10:48:44;8.37;;;7.53;;
7003;SDS011;3542;48.812;9.146;2022-07-22T10:54:00;8.67;;;7.87;;
7003;SDS011;3542;48.812;9.146;2022-07-22T10:56:27;9.77;;;7.77;;
7003;SDS011;3542;48.812;9.146;2022-07-22T10:58:59;8.67;;;7.67;;
7003;SDS011;3542;48.812;9.146;2022-07-22T11:01:40;8.43;;;7.33;;
7003;SDS011;3542;48.812;9.146;2022-07-22T11:06:44;8.20;;;7.47;;
7003;SDS011;3542;48.812;9.146;2022-07-22T11:09:14;8.57;;;7.67;;
7003;SDS011;3542;48.812;9.146;2022-07-22T11:11:42;7.47;;;6.97;;
7003;SDS011;3542;48.812;9.146;2022-07-22T11:14:17;8.90;;;8.00;;
7003;SDS011;3542;48.812;9.146;2022-07-22T11:16:45;7.27;;;6.67;;
7003;SDS011;3542;48.812;9.146;2022-07-22T11:19:12;7.70;;;7.10;;
7003;SDS011;3542;48.812;9.146;2022-07-22T11:21:38;8.23;;;7.43;;
7003;SDS011;3542;48.812;9.146;2022-07-22T11:24:06;9.60;;;8.80;;
7003;SDS011;3542;48.812;9.146;2022-07-22T11:26:51;8.40;;;7.70;;
7003;SDS011;3542;48.812;9.146;2022-07-22T11:29:29;9.10;;;8.20;;
7003;SDS011;3542;48.812;9.146;2022-07-22T11:31:59;8.67;;;7.90;;
7003;SDS011;3542;48.812;9.146;2022-07-22T11:34:26;8.57;;;7.77;;
7003;SDS011;3542;48.812;9.146;2022-07-22T11:36:52;9.53;;;8.63;;
7003;SDS011;3542;48.812;9.146;2022-07-22T11:39:22;9.40;;;7.83;;
7003;SDS011;3542;48.812;9.146;2022-07-22T11:41:51;9.20;;;7.93;;
7003;SDS011;3542;48.812;9.146;2022-07-22T11:44:25;8.37;;;7.50;;
7003;SDS011;3542;48.812;9.146;2022-07-22T11:46:52;9.43;;;7.67;;
7003;SDS011;3542;48.812;9.146;2022-07-22T11:49:20;12.03;;;8.10;;
7003;SDS011;3542;48.812;9.146;2022-07-22T11:51:46;8.43;;;7.67;;
7003;SDS011;3542;48.812;9.146;2022-07-22T11:54:12;8.20;;;7.40;;
7003;SDS011;3542;48.812;9.146;2022-07-22T11:56:38;8.27;;;7.60;;
7003;SDS011;3542;48.812;9.146;2022-07-22T11:59:05;8.80;;;8.00;;
7003;SDS011;3542;48.812;9.146;2022-07-22T12:01:35;8.73;;;7.83;;
7003;SDS011;3542;48.812;9.146;2022-07-22T12:04:06;8.73;;;8.03;;
7003;SDS011;3542;48.812;9.146;2022-07-22T12:06:33;8.40;;;7.50;;
7003;SDS011;3542;48.812;9.146;2022-07-22T12:09:07;8.60;;;7.77;;
7003;SDS011;3542;48.812;9.146;2022-07-22T12:11:35;10.63;;;8.23;;
7003;SDS011;3542;48.812;9.146;2022-07-22T12:14:11;9.07;;;7.43;;
7003;SDS011;3542;48.812;9.146;2022-07-22T12:16:38;8.43;;;7.63;;
7003;SDS011;3542;48.812;9.146;2022-07-22T12:19:06;8.40;;;7.70;;
7003;SDS011;3542;48.812;9.146;2022-07-22T12:21:58;7.67;;;7.07;;
7003;SDS011;3542;48.812;9.146;2022-07-22T12:24:33;8.33;;;7.63;;
7003;SDS011;3542;48.812;9.146;2022-07-22T12:27:07;8.43;;;7.63;;
7003;SDS011;3542;48.812;9.146;2022-07-22T12:32:01;8.73;;;7.00;;
7003;SDS011;3542;48.812;9.146;2022-07-22T12:34:33;8.33;;;7.57;;
7003;SDS011;3542;48.812;9.146;2022-07-22T12:37:01;7.47;;;6.70;;
7003;SDS011;3542;48.812;9.146;2022-07-22T12:42:23;7.30;;;6.70;;
7003;SDS011;3542;48.812;9.146;2022-07-22T12:44:51;9.23;;;8.27;;
7003;SDS011;3542;48.812;9.146;2022-07-22T12:50:25;12.53;;;7.30;;
7003;SDS011;3542;48.812;9.146;2022-07-22T12:52:50;8.57;;;7.67;;
7003;SDS011;3542;48.812;9.146;2022-07-22T12:55:18;8.37;;;7.00;;
7003;SDS011;3542;48.812;9.146;2022-07-22T12:57:43;7.60;;;6.83;;
7003;SDS011;3542;48.812;9.146;2022-07-22T13:00:09;8.27;;;7.57;;
7003;SDS011;3542;48.812;9.146;2022-07-22T13:02:36;7.20;;;6.70;;
7003;SDS011;3542;48.812;9.146;2022-07-22T13:05:01;8.00;;;7.20;;
7003;SDS011;3542;48.812;9.146;2022-07-22T13:07:27;7.33;;;6.83;;
7003;SDS011;3542;48.812;9.146;2022-07-22T13:09:53;6.57;;;6.07;;
7003;SDS011;3542;48.812;9.146;2022-07-22T13:12:18;8.73;;;6.03;;
7003;SDS011;3542;48.812;9.146;2022-07-22T13:14:44;8.27;;;7.57;;
7003;SDS011;3542;48.812;9.146;2022-07-22T13:17:09;7.10;;;6.50;;
7003;SDS011;3542;48.812;9.146;2022-07-22T13:19:37;7.87;;;7.30;;
7003;SDS011;3542;48.812;9.146;2022-07-22T13:22:02;8.00;;;7.40;;
7003;SDS011;3542;48.812;9.146;2022-07-22T13:24:28;7.17;;;6.57;;
7003;SDS011;3542;48.812;9.146;2022-07-22T13:26:53;7.50;;;6.90;;
7003;SDS011;3542;48.812;9.146;2022-07-22T13:29:19;8.00;;;6.40;;
7003;SDS011;3542;48.812;9.146;2022-07-22T13:31:45;9.93;;;7.40;;
7003;SDS011;3542;48.812;9.146;2022-07-22T13:34:11;6.80;;;6.30;;
7003;SDS011;3542;48.812;9.146;2022-07-22T13:36:36;6.67;;;6.17;;
7003;SDS011;3542;48.812;9.146;2022-07-22T13:39:02;7.97;;;6.03;;
7003;SDS011;3542;48.812;9.146;2022-07-22T13:41:29;7.73;;;7.13;;
7003;SDS011;3542;48.812;9.146;2022-07-22T13:43:55;6.67;;;6.17;;
7003;SDS011;3542;48.812;9.146;2022-07-22T13:46:20;6.37;;;5.87;;
7003;SDS011;3542;48.812;9.146;2022-07-22T13:48:46;6.90;;;6.37;;
7003;SDS011;3542;48.812;9.146;2022-07-22T13:51:12;6.53;;;5.97;;
7003;SDS011;3542;48.812;9.146;2022-07-22T13:53:39;7.23;;;6.57;;
7003;SDS011;3542;48.812;9.146;2022-07-22T13:56:05;6.87;;;6.40;;
7003;SDS011;3542;48.812;9.146;2022-07-22T13:58:34;6.80;;;6.17;;
7003;SDS011;3542;48.812;9.146;2022-07-22T14:01:00;6.80;;;6.20;;
7003;SDS011;3542;48.812;9.146;2022-07-22T14:03:26;9.90;;;6.17;;
7003;SDS011;3542;48.812;9.146;2022-07-22T14:05:51;6.30;;;5.90;;
7003;SDS011;3542;48.812;9.146;2022-07-22T14:08:17;7.23;;;6.53;;
7003;SDS011;3542;48.812;9.146;2022-07-22T14:10:42;7.83;;;6.87;;
7003;SDS011;3542;48.812;9.146;2022-07-22T14:13:08;6.63;;;6.20;;
7003;SDS011;3542;48.812;9.146;2022-07-22T14:15:33;6.43;;;5.97;;
7003;SDS011;3542;48.812;9.146;2022-07-22T14:17:59;6.97;;;6.37;;
7003;SDS011;3542;48.812;9.146;2022-07-22T14:20:25;6.20;;;5.60;;
7003;SDS011;3542;48.812;9.146;2022-07-22T14:22:51;7.47;;;6.37;;
7003;SDS011;3542;48.812;9.146;2022-07-22T14:25:16;6.20;;;5.60;;
7003;SDS011;3542;48.812;9.146;2022-07-22T14:27:42;6.73;;;6.10;;
7003;SDS011;3542;48.812;9.146;2022-07-22T14:30:08;6.77;;;6.20;;
7003;SDS011;3542;48.812;9.146;2022-07-22T14:32:34;7.37;;;6.67;;
7003;SDS011;3542;48.812;9.146;2022-07-22T14:35:00;7.07;;;6.30;;
7003;SDS011;3542;48.812;9.146;2022-07-22T14:37:27;6.50;;;6.10;;
7003;SDS011;3542;48.812;9.146;2022-07-22T14:39:52;5.53;;;5.10;;
7003;SDS011;3542;48.812;9.146;2022-07-22T14:42:18;7.17;;;6.43;;
7003;SDS011;3542;48.812;9.146;2022-07-22T14:44:43;6.63;;;6.00;;
7003;SDS011;3542;48.812;9.146;2022-07-22T14:47:09;6.70;;;6.10;;
7003;SDS011;3542;48.812;9.146;2022-07-22T14:49:34;6.70;;;6.13;;
7003;SDS011;3542;48.812;9.146;2022-07-22T14:52:00;6.20;;;5.80;;
7003;SDS011;3542;48.812;9.146;2022-07-22T14:54:25;7.07;;;5.60;;
7003;SDS011;3542;48.812;9.146;2022-07-22T14:56:51;7.20;;;5.90;;
7003;SDS011;3542;48.812;9.146;2022-07-22T14:59:17;6.20;;;5.80;;
7003;SDS011;3542;48.812;9.146;2022-07-22T15:01:42;6.10;;;5.53;;
7003;SDS011;3542;48.812;9.146;2022-07-22T15:04:07;13.03;;;5.90;;
7003;SDS011;3542;48.812;9.146;2022-07-22T15:06:33;6.93;;;5.77;;
7003;SDS011;3542;48.812;9.146;2022-07-22T15:08:58;6.13;;;5.77;;
7003;SDS011;3542;48.812;9.146;2022-07-22T15:11:24;6.63;;;6.07;;
7003;SDS011;3542;48.812;9.146;2022-07-22T15:13:49;6.40;;;5.90;;
7003;SDS011;3542;48.812;9.146;2022-07-22T15:16:15;7.43;;;6.70;;
7003;SDS011;3542;48.812;9.146;2022-07-22T15:18:41;6.87;;;6.27;;
7003;SDS011;3542;48.812;9.146;2022-07-22T15:21:06;6.43;;;6.00;;
7003;SDS011;3542;48.812;9.146;2022-07-22T15:23:32;7.10;;;6.40;;
7003;SDS011;3542;48.812;9.146;2022-07-22T15:25:58;6.63;;;6.03;;
7003;SDS011;3542;48.812;9.146;2022-07-22T15:28:25;7.70;;;6.13;;
7003;SDS011;3542;48.812;9.146;2022-07-22T15:30:51;7.47;;;6.67;;
7003;SDS011;3542;48.812;9.146;2022-07-22T15:33:17;6.60;;;6.03;;
7003;SDS011;3542;48.812;9.146;2022-07-22T15:35:42;6.43;;;5.93;;
7003;SDS011;3542;48.812;9.146;2022-07-22T15:38:08;6.53;;;6.10;;
7003;SDS011;3542;48.812;9.146;2022-07-22T15:40:34;6.20;;;5.77;;
7003;SDS011;3542;48.812;9.146;2022-07-22T15:42:59;6.70;;;6.20;;
7003;SDS011;3542;48.812;9.146;2022-07-22T15:45:25;7.07;;;6.37;;
7003;SDS011;3542;48.812;9.146;2022-07-22T15:47:51;6.97;;;6.30;;
7003;SDS011;3542;48.812;9.146;2022-07-22T15:50:16;6.20;;;5.70;;
7003;SDS011;3542;48.812;9.146;2022-07-22T15:52:46;6.93;;;6.20;;
7003;SDS011;3542;48.812;9.146;2022-07-22T15:55:13;5.97;;;5.57;;
7003;SDS011;3542;48.812;9.146;2022-07-22T15:57:39;6.90;;;6.30;;
7003;SDS011;3542;48.812;9.146;2022-07-22T16:00:24;6.20;;;5.80;;
7003;SDS011;3542;48.812;9.146;2022-07-22T16:02:49;7.17;;;6.53;;
7003;SDS011;3542;48.812;9.146;2022-07-22T16:05:15;7.20;;;6.60;;
7003;SDS011;3542;48.812;9.146;2022-07-22T16:07:40;5.70;;;5.30;;
7003;SDS011;3542;48.812;9.146;2022-07-22T16:10:06;7.20;;;6.70;;
7003;SDS011;3542;48.812;9.146;2022-07-22T16:12:32;6.40;;;5.80;;
7003;SDS011;3542;48.812;9.146;2022-07-22T16:14:58;6.37;;;5.87;;
7003;SDS011;3542;48.812;9.146;2022-07-22T16:17:23;6.90;;;6.27;;
7003;SDS011;3542;48.812;9.146;2022-07-22T16:19:49;6.27;;;5.87;;
7003;SDS011;3542;48.812;9.146;2022-07-22T16:22:14;7.20;;;6.50;;
7003;SDS011;3542;48.812;9.146;2022-07-22T16:24:40;6.87;;;6.27;;
7003;SDS011;3542;48.812;9.146;2022-07-22T16:27:05;7.00;;;6.23;;
7003;SDS011;3542;48.812;9.146;2022-07-22T16:29:31;6.67;;;6.07;;
7003;SDS011;3542;48.812;9.146;2022-07-22T16:31:57;6.20;;;5.60;;
7003;SDS011;3542;48.812;9.146;2022-07-22T16:34:22;6.13;;;5.73;;
7003;SDS011;3542;48.812;9.146;2022-07-22T16:36:47;6.53;;;5.93;;
7003;SDS011;3542;48.812;9.146;2022-07-22T16:39:13;6.00;;;5.50;;
7003;SDS011;3542;48.812;9.146;2022-07-22T16:41:39;7.97;;;6.10;;
7003;SDS011;3542;48.812;9.146;2022-07-22T16:44:05;6.43;;;5.77;;
7003;SDS011;3542;48.812;9.146;2022-07-22T16:46:30;7.00;;;6.30;;
7003;SDS011;3542;48.812;9.146;2022-07-22T16:48:56;6.23;;;5.63;;
7003;SDS011;3542;48.812;9.146;2022-07-22T16:51:21;5.50;;;5.20;;
7003;SDS011;3542;48.812;9.146;2022-07-22T16:53:47;7.73;;;7.00;;
7003;SDS011;3542;48.812;9.146;2022-07-22T16:56:13;6.30;;;5.90;;